Time;durP1;ratioP1;P1;durP2;ratioP2;P2;SDS_P1;SDS_P2;PMS_P1;PMS_P2;Temp;Humidity;BMP_temperature;BMP_pressure;BME280_temperature;BME280_humidity;BME280_pressure;Samples;Min_cycle;Max_cycle;Signal;HPM_P1;HPM_P2
2024/03/22 00:00:59;;;;;;;;;;;;;;;20.11;46.44;101623.31;2059672;28;6438;-65
2024/03/22 00:01:59;;;;;;;;;;;;;;;20.11;46.51;101629.81;2059278;28;2732;-63
2024/03/22 00:03:00;;;;;;;;;;;;;;;20.10;46.63;101628.31;2060906;28;2200;-64
2024/03/22 00:04:00;;;;;;;;;;;;;;;20.09;46.54;101630.44;2052125;28;2226;-64
2024/03/22 00:05:00;;;;;;;;;;;;;;;20.09;46.54;101624.69;2060648;28;2294;-63
2024/03/22 00:06:01;;;;;;;;;;;;;;;20.08;46.50;101620.31;2060251;28;2210;-64
2024/03/22 00:07:02;;;;;;;;;;;;;;;20.09;46.56;101618.94;2051006;28;2113;-64
2024/03/22 00:08:03;;;;;;;;;;;;;;;20.08;46.59;101617.44;2053337;28;2221;-63
2024/03/22 00:09:03;;;;;;;;;;;;;;;20.09;46.48;101624.69;2050828;28;2171;-65
2024/03/22 00:10:05;;;;;;;;;;;;;;;20.07;46.52;101607.31;2053494;28;2337;-63
2024/03/22 00:11:05;;;;;;;;;;;;;;;20.07;46.63;101621.69;2051823;28;2223;-63
2024/03/22 00:12:06;;;;;;;;;;;;;;;20.07;46.49;101615.94;2052982;28;2224;-64
2024/03/22 00:13:06;;;;;;;;;;;;;;;20.06;46.41;101620.19;2049969;28;2695;-64
2024/03/22 00:14:07;;;;;;;;;;;;;;;20.06;46.46;101614.44;2060482;28;2256;-64
2024/03/22 00:15:08;;;;;;;;;;;;;;;20.05;46.61;101617.97;2057750;28;2325;-63
2024/03/22 00:16:08;;;;;;;;;;;;;;;20.05;46.64;101624.44;2059010;28;2241;-63
2024/03/22 00:17:08;;;;;;;;;;;;;;;20.04;46.40;101617.22;2061625;28;2084;-64
2024/03/22 00:18:09;;;;;;;;;;;;;;;20.06;46.58;101613.69;2052236;28;2068;-63
2024/03/22 00:19:09;;;;;;;;;;;;;;;20.05;46.53;101607.19;2059744;28;1616;-64
2024/03/22 00:20:10;;;;;;;;;;;;;;;20.06;46.43;101607.94;2057476;28;2328;-64
2024/03/22 00:21:10;;;;;;;;;;;;;;;20.05;46.40;101612.94;2051787;28;2519;-63
2024/03/22 00:22:10;;;;;;;;;;;;;;;20.05;46.49;101604.31;2052634;28;2195;-63
2024/03/22 00:23:11;;;;;;;;;;;;;;;20.05;46.56;101606.47;2052732;28;2424;-64
2024/03/22 00:24:11;;;;;;;;;;;;;;;20.05;46.50;101601.44;2053223;28;2103;-64
2024/03/22 00:25:12;;;;;;;;;;;;;;;20.06;46.42;101602.19;2050848;28;2353;-63
2024/03/22 00:26:12;;;;;;;;;;;;;;;20.05;46.42;101600.72;2052700;28;1663;-63
2024/03/22 00:27:12;;;;;;;;;;;;;;;20.04;46.40;101599.97;2053465;28;1640;-64
2024/03/22 00:28:13;;;;;;;;;;;;;;;20.04;46.40;101594.22;2051688;28;2183;-64
2024/03/22 00:29:13;;;;;;;;;;;;;;;20.03;46.75;101595.56;2053247;28;1597;-64
2024/03/22 00:30:14;;;;;;;;;;;;;;;20.05;46.66;101595.69;2052459;28;6296;-64
2024/03/22 00:31:15;;;;;;;;;;;;;;;20.02;46.60;101591.22;2053494;28;2339;-65
2024/03/22 00:32:16;;;;;;;;;;;;;;;20.02;46.39;101596.19;2053366;28;2208;-63
2024/03/22 00:33:16;;;;;;;;;;;;;;;20.02;46.43;101593.31;2059411;28;2197;-63
2024/03/22 00:34:16;;;;;;;;;;;;;;;20.01;46.42;101586.09;2060572;28;2231;-63
2024/03/22 00:35:17;;;;;;;;;;;;;;;20.02;46.51;101584.69;2052614;28;2044;-64
2024/03/22 00:36:17;;;;;;;;;;;;;;;20.00;46.57;101585.34;2051642;28;2212;-64
2024/03/22 00:37:17;;;;;;;;;;;;;;;20.00;46.55;101585.34;2053048;28;1640;-63
2024/03/22 00:38:18;;;;;;;;;;;;;;;20.00;46.55;101582.47;2054083;28;1985;-63
2024/03/22 00:39:18;;;;;;;;;;;;;;;20.01;46.64;101586.09;2053703;28;2135;-64
2024/03/22 00:40:20;;;;;;;;;;;;;;;20.01;46.37;101578.19;2051610;28;2188;-64
2024/03/22 00:41:20;;;;;;;;;;;;;;;20.01;46.37;101586.84;2053234;28;1711;-64
2024/03/22 00:42:21;;;;;;;;;;;;;;;20.00;46.52;101582.47;2060106;28;2135;-64
2024/03/22 00:43:21;;;;;;;;;;;;;;;19.99;46.53;101575.22;2067620;28;2421;-64
2024/03/22 00:44:22;;;;;;;;;;;;;;;19.99;46.54;101580.97;2043219;28;2666;-64
2024/03/22 00:45:22;;;;;;;;;;;;;;;20.00;46.43;101581.72;2043325;29;2344;-64
2024/03/22 00:46:22;;;;;;;;;;;;;;;20.00;46.42;101570.22;2053838;28;1621;-64
2024/03/22 00:47:23;;;;;;;;;;;;;;;19.99;46.40;101572.31;2054208;28;2191;-64
2024/03/22 00:48:24;;;;;;;;;;;;;;;19.99;46.39;101571.59;2053540;28;1712;-63
2024/03/22 00:49:24;;;;;;;;;;;;;;;19.99;46.41;101575.22;2052224;28;2460;-64
2024/03/22 00:50:24;;;;;;;;;;;;;;;19.98;46.49;101573.72;2060243;28;1801;-64
2024/03/22 00:51:26;;;;;;;;;;;;;;;19.98;46.42;101570.84;2067978;28;1728;-63
2024/03/22 00:52:26;;;;;;;;;;;;;;;19.98;46.33;101567.97;2059819;28;2245;-63
2024/03/22 00:53:27;;;;;;;;;;;;;;;19.98;46.54;101570.09;2058284;28;2259;-64
2024/03/22 00:54:27;;;;;;;;;;;;;;;19.98;46.43;101567.97;2062019;28;1738;-64
2024/03/22 00:55:27;;;;;;;;;;;;;;;19.97;46.48;101565.72;2052187;28;2446;-63
2024/03/22 00:56:28;;;;;;;;;;;;;;;19.96;46.37;101570.72;2051667;28;2220;-64
2024/03/22 00:57:28;;;;;;;;;;;;;;;19.97;46.49;101568.59;2060846;28;1610;-64
2024/03/22 00:58:29;;;;;;;;;;;;;;;19.97;46.36;101574.34;2059945;28;2151;-64
2024/03/22 00:59:29;;;;;;;;;;;;;;;19.97;46.37;101568.59;2052327;28;2218;-64
2024/03/22 01:00:30;;;;;;;;;;;;;;;19.96;46.38;101570.72;2050184;28;6202;-64
2024/03/22 01:01:30;;;;;;;;;;;;;;;19.96;46.42;101570.72;2053545;28;1707;-64
2024/03/22 01:02:30;;;;;;;;;;;;;;;19.96;46.45;101564.22;2060108;28;2287;-64
2024/03/22 01:03:31;;;;;;;;;;;;;;;19.96;46.37;101564.22;2060970;28;1595;-64
2024/03/22 01:04:31;;;;;;;;;;;;;;;19.96;46.38;101561.34;2051304;28;2185;-64
2024/03/22 01:05:32;;;;;;;;;;;;;;;19.95;46.33;101557.75;2057797;28;2145;-64
2024/03/22 01:06:32;;;;;;;;;;;;;;;19.95;46.34;101557.75;2058786;28;2291;-63
2024/03/22 01:07:32;;;;;;;;;;;;;;;19.94;46.38;101550.47;2052637;28;2175;-63
2024/03/22 01:08:33;;;;;;;;;;;;;;;19.95;46.44;101556.97;2053173;28;2247;-64
2024/03/22 01:09:33;;;;;;;;;;;;;;;19.95;46.55;101546.25;2060936;28;2138;-64
2024/03/22 01:10:34;;;;;;;;;;;;;;;19.94;46.33;101544.72;2063286;28;1706;-63
2024/03/22 01:11:34;;;;;;;;;;;;;;;19.94;46.52;101547.59;2062293;28;2159;-64
2024/03/22 01:12:35;;;;;;;;;;;;;;;19.94;46.48;101549.72;2053484;28;2400;-65
2024/03/22 01:13:35;;;;;;;;;;;;;;;19.93;46.58;101549.00;2051456;28;2183;-63
2024/03/22 01:14:36;;;;;;;;;;;;;;;19.93;46.54;101540.38;2054829;28;1582;-64
2024/03/22 01:15:36;;;;;;;;;;;;;;;19.92;46.46;101547.47;2061168;28;2318;-64
2024/03/22 01:16:37;;;;;;;;;;;;;;;19.94;46.38;101546.84;2061019;28;2584;-63
2024/03/22 01:17:37;;;;;;;;;;;;;;;19.92;46.42;101541.72;2053950;28;1928;-63
2024/03/22 01:18:37;;;;;;;;;;;;;;;19.93;46.49;101546.13;2052466;28;2240;-64
2024/03/22 01:19:38;;;;;;;;;;;;;;;19.92;46.35;101550.34;2053363;28;1843;-63
2024/03/22 01:20:38;;;;;;;;;;;;;;;19.93;46.32;101548.22;2053917;28;2231;-64
2024/03/22 01:21:39;;;;;;;;;;;;;;;19.92;46.58;101553.22;2058891;28;2364;-65
2024/03/22 01:22:40;;;;;;;;;;;;;;;19.93;46.41;101545.34;2058262;28;2600;-63
2024/03/22 01:23:40;;;;;;;;;;;;;;;19.92;46.53;101544.59;2060667;28;1968;-63
2024/03/22 01:24:40;;;;;;;;;;;;;;;19.92;46.39;101541.00;2059608;28;2176;-63
2024/03/22 01:25:41;;;;;;;;;;;;;;;19.92;46.41;101543.88;2052324;28;2247;-64
2024/03/22 01:26:42;;;;;;;;;;;;;;;19.92;46.32;101544.59;2063129;28;1630;-63
2024/03/22 01:27:42;;;;;;;;;;;;;;;19.91;46.46;101540.25;2050806;28;2310;-64
2024/03/22 01:28:43;;;;;;;;;;;;;;;19.90;46.29;101533.00;2054172;28;1607;-63
2024/03/22 01:29:43;;;;;;;;;;;;;;;19.91;46.33;101528.75;2053802;28;2338;-64
2024/03/22 01:30:43;;;;;;;;;;;;;;;19.90;46.36;101520.75;2053006;28;6167;-63
2024/03/22 01:31:44;;;;;;;;;;;;;;;19.91;46.40;101517.25;2053990;28;2271;-63
2024/03/22 01:32:44;;;;;;;;;;;;;;;19.90;46.37;101535.84;2053604;28;2632;-63
2024/03/22 01:33:45;;;;;;;;;;;;;;;19.91;46.33;101533.75;2056323;28;1860;-63
2024/03/22 01:34:45;;;;;;;;;;;;;;;19.90;46.40;101524.38;2049697;28;2267;-64
2024/03/22 01:35:45;;;;;;;;;;;;;;;19.90;46.29;101527.25;2052575;28;2279;-64
2024/03/22 01:36:46;;;;;;;;;;;;;;;19.90;46.46;101521.50;2054568;28;2221;-64
2024/03/22 01:37:46;;;;;;;;;;;;;;;19.90;46.31;101521.50;2051546;28;2563;-63
2024/03/22 01:38:47;;;;;;;;;;;;;;;19.90;46.58;101520.75;2052796;28;2220;-63
2024/03/22 01:39:47;;;;;;;;;;;;;;;19.89;46.51;101520.00;2052525;28;2346;-64
2024/03/22 01:40:47;;;;;;;;;;;;;;;19.88;46.53;101519.25;2053813;28;2362;-63
2024/03/22 01:41:48;;;;;;;;;;;;;;;19.89;46.39;101520.00;2053341;28;2565;-63
2024/03/22 01:42:52;;;;;;;;;;;;;;;19.89;46.44;101520.00;2054142;28;2265;-63
2024/03/22 01:43:52;;;;;;;;;;;;;;;19.89;46.34;101517.13;2052813;28;2578;-63
2024/03/22 01:44:53;;;;;;;;;;;;;;;19.89;46.34;101514.25;2045026;29;2776;-64
2024/03/22 01:45:53;;;;;;;;;;;;;;;19.87;46.45;101512.00;2060660;28;2289;-64
2024/03/22 01:46:54;;;;;;;;;;;;;;;19.87;46.38;101517.75;2055422;28;2191;-64
2024/03/22 01:47:55;;;;;;;;;;;;;;;19.88;46.43;101518.50;2053488;28;2353;-63
2024/03/22 01:48:56;;;;;;;;;;;;;;;19.88;46.51;101512.75;2061066;28;2187;-63
2024/03/22 01:49:56;;;;;;;;;;;;;;;19.88;46.35;101512.75;2053655;28;2399;-63
2024/03/22 01:50:57;;;;;;;;;;;;;;;19.87;46.40;101505.50;2050202;28;2324;-63
2024/03/22 01:51:57;;;;;;;;;;;;;;;19.87;46.39;101519.88;2060767;28;2301;-63
2024/03/22 01:52:58;;;;;;;;;;;;;;;19.87;46.44;101512.00;2062972;28;1661;-64
2024/03/22 01:54:01;;;;;;;;;;;;;;;19.88;46.45;101512.75;2053840;28;2228;-63
2024/03/22 01:55:03;;;;;;;;;;;;;;;19.86;46.35;101509.78;2052895;28;2374;-64
2024/03/22 01:56:03;;;;;;;;;;;;;;;19.87;46.46;101519.88;2061733;28;1752;-63
2024/03/22 01:57:05;;;;;;;;;;;;;;;19.85;46.56;101511.13;2061394;28;2229;-63
2024/03/22 01:58:06;;;;;;;;;;;;;;;19.86;46.52;101509.78;2053258;28;2204;-63
2024/03/22 01:59:06;;;;;;;;;;;;;;;19.85;46.57;101514.00;2051213;28;2303;-63
2024/03/22 02:00:09;;;;;;;;;;;;;;;19.84;46.43;101510.41;2053044;28;6034;-63
2024/03/22 02:01:10;;;;;;;;;;;;;;;19.87;46.42;101505.50;2060743;28;2257;-64
2024/03/22 02:02:11;;;;;;;;;;;;;;;19.85;46.49;101502.50;2061255;28;2210;-64
2024/03/22 02:03:11;;;;;;;;;;;;;;;19.85;46.47;101496.75;2053756;28;2280;-63
2024/03/22 02:04:12;;;;;;;;;;;;;;;19.85;46.46;101503.25;2052781;28;2183;-63
2024/03/22 02:05:13;;;;;;;;;;;;;;;19.85;46.35;101505.38;2061243;28;2157;-64
2024/03/22 02:06:14;;;;;;;;;;;;;;;19.84;46.41;101498.91;2058309;28;2277;-64
2024/03/22 02:07:15;;;;;;;;;;;;;;;19.84;46.44;101501.78;2051943;28;2259;-65
2024/03/22 02:08:15;;;;;;;;;;;;;;;19.84;46.50;101506.78;2050424;28;2247;-60
2024/03/22 02:09:16;;;;;;;;;;;;;;;19.83;46.48;101500.25;2060050;28;2373;-62
2024/03/22 02:10:16;;;;;;;;;;;;;;;19.84;46.51;101495.28;2060712;28;1624;-63
2024/03/22 02:11:17;;;;;;;;;;;;;;;19.83;46.47;101496.66;2060281;28;2106;-59
2024/03/22 02:12:17;;;;;;;;;;;;;;;19.83;46.51;101499.53;2058971;28;2195;-59
2024/03/22 02:13:17;;;;;;;;;;;;;;;19.83;46.46;101490.91;2060623;28;2270;-59
2024/03/22 02:14:18;;;;;;;;;;;;;;;19.83;46.29;101488.03;2051994;28;2263;-59
2024/03/22 02:15:18;;;;;;;;;;;;;;;19.82;46.44;101478.66;2053264;28;2248;-59
2024/03/22 02:16:19;;;;;;;;;;;;;;;19.83;46.36;101488.03;2059737;28;1698;-59
2024/03/22 02:17:19;;;;;;;;;;;;;;;19.83;46.51;101482.28;2052667;28;2235;-59
2024/03/22 02:18:19;;;;;;;;;;;;;;;19.82;46.49;101483.66;2061425;28;2186;-59
2024/03/22 02:19:20;;;;;;;;;;;;;;;19.81;46.44;101479.28;2052041;28;2139;-59
2024/03/22 02:20:20;;;;;;;;;;;;;;;19.82;46.41;101480.78;2052234;28;2228;-59
2024/03/22 02:21:21;;;;;;;;;;;;;;;19.82;46.49;101475.78;2060136;28;2313;-59
2024/03/22 02:22:21;;;;;;;;;;;;;;;19.82;46.40;101475.03;2061293;28;2226;-59
2024/03/22 02:23:23;;;;;;;;;;;;;;;19.81;46.51;101471.44;2061171;28;1725;-59
2024/03/22 02:24:24;;;;;;;;;;;;;;;19.81;46.38;101473.53;2059094;28;2215;-59
2024/03/22 02:25:24;;;;;;;;;;;;;;;19.81;46.36;101480.03;2060132;28;2224;-59
2024/03/22 02:26:24;;;;;;;;;;;;;;;19.81;46.47;101467.78;2060801;28;2376;-59
2024/03/22 02:27:25;;;;;;;;;;;;;;;19.80;46.42;101467.03;2051155;28;2204;-59
2024/03/22 02:28:26;;;;;;;;;;;;;;;19.81;46.43;101470.66;2050393;28;2398;-60
2024/03/22 02:29:26;;;;;;;;;;;;;;;19.81;46.44;101468.56;2058113;28;2292;-59
2024/03/22 02:30:27;;;;;;;;;;;;;;;19.80;46.49;101466.31;2056706;28;6197;-60
2024/03/22 02:31:27;;;;;;;;;;;;;;;19.80;46.40;101472.03;2050542;28;2095;-60
2024/03/22 02:32:28;;;;;;;;;;;;;;;19.80;46.36;101469.91;2053307;28;2219;-59
2024/03/22 02:33:28;;;;;;;;;;;;;;;19.80;46.47;101460.56;2053785;28;2224;-59
2024/03/22 02:34:28;;;;;;;;;;;;;;;19.79;46.52;101461.91;2053315;28;1623;-60
2024/03/22 02:35:29;;;;;;;;;;;;;;;19.79;46.34;101459.03;2058544;28;2127;-60
2024/03/22 02:36:29;;;;;;;;;;;;;;;19.79;46.46;101459.03;2060131;28;2241;-60
2024/03/22 02:37:31;;;;;;;;;;;;;;;19.78;46.43;101457.56;2061632;28;1598;-60
2024/03/22 02:38:32;;;;;;;;;;;;;;;19.79;46.32;101459.03;2051133;28;2149;-60
2024/03/22 02:39:32;;;;;;;;;;;;;;;19.79;46.52;101464.78;2059146;28;2134;-60
2024/03/22 02:40:33;;;;;;;;;;;;;;;19.79;46.32;101459.03;2061099;28;2483;-61
2024/03/22 02:41:33;;;;;;;;;;;;;;;19.78;46.50;101457.56;2060637;28;2240;-60
2024/03/22 02:42:33;;;;;;;;;;;;;;;19.78;46.42;101455.41;2053595;28;1655;-61
2024/03/22 02:43:34;;;;;;;;;;;;;;;19.77;46.46;101453.94;2050592;28;2244;-60
2024/03/22 02:44:38;;;;;;;;;;;;;;;19.78;46.33;101457.56;2061003;28;2287;-61
2024/03/22 02:45:38;;;;;;;;;;;;;;;19.76;46.42;101449.56;2059209;28;2124;-60
2024/03/22 02:46:39;;;;;;;;;;;;;;;19.77;46.47;101456.03;2052486;28;2236;-60
2024/03/22 02:47:39;;;;;;;;;;;;;;;19.78;46.43;101454.69;2051826;28;2249;-61
2024/03/22 02:48:39;;;;;;;;;;;;;;;19.76;46.46;101451.69;2060168;28;2329;-60
2024/03/22 02:49:40;;;;;;;;;;;;;;;19.76;46.46;101458.19;2061104;28;2224;-60
2024/03/22 02:50:40;;;;;;;;;;;;;;;19.76;46.35;101445.94;2053491;28;1676;-60
2024/03/22 02:51:41;;;;;;;;;;;;;;;19.75;46.42;101447.34;2058936;28;2362;-61
2024/03/22 02:52:41;;;;;;;;;;;;;;;19.76;46.52;101448.81;2060540;28;2356;-60
2024/03/22 02:53:41;;;;;;;;;;;;;;;19.76;46.44;101443.06;2053267;28;2185;-60
2024/03/22 02:54:42;;;;;;;;;;;;;;;19.76;46.43;101437.31;2059756;28;2458;-61
2024/03/22 02:55:42;;;;;;;;;;;;;;;19.75;46.42;101432.97;2059711;28;2326;-60
2024/03/22 02:56:43;;;;;;;;;;;;;;;19.74;46.40;101432.19;2053382;28;1709;-60
2024/03/22 02:57:43;;;;;;;;;;;;;;;19.74;46.39;101435.06;2050970;28;2184;-61
2024/03/22 02:58:43;;;;;;;;;;;;;;;19.74;46.43;101440.81;2059630;28;2179;-60
2024/03/22 02:59:44;;;;;;;;;;;;;;;19.74;46.54;101440.06;2058530;28;2361;-61
2024/03/22 03:00:44;;;;;;;;;;;;;;;19.74;46.38;101434.31;2052072;28;6028;-60
2024/03/22 03:01:45;;;;;;;;;;;;;;;19.74;46.39;101429.31;2052063;28;2257;-61
2024/03/22 03:02:45;;;;;;;;;;;;;;;19.74;46.38;101429.31;2052853;28;1667;-60
2024/03/22 03:03:45;;;;;;;;;;;;;;;19.73;46.35;101422.09;2052045;28;2244;-60
2024/03/22 03:04:46;;;;;;;;;;;;;;;19.74;46.32;101426.44;2061722;28;2250;-60
2024/03/22 03:05:46;;;;;;;;;;;;;;;19.74;46.43;101422.84;2059703;28;2075;-60
2024/03/22 03:06:47;;;;;;;;;;;;;;;19.73;46.46;101422.09;2054545;28;2220;-60
2024/03/22 03:07:47;;;;;;;;;;;;;;;19.73;46.31;101418.47;2060310;28;2266;-60
2024/03/22 03:08:47;;;;;;;;;;;;;;;19.73;46.34;101421.34;2060818;28;2438;-60
2024/03/22 03:09:48;;;;;;;;;;;;;;;19.73;46.35;101418.47;2051842;28;2096;-60
2024/03/22 03:10:48;;;;;;;;;;;;;;;19.73;46.20;101415.59;2051709;28;2496;-60
2024/03/22 03:11:49;;;;;;;;;;;;;;;19.73;46.34;101419.22;2060851;28;2264;-60
2024/03/22 03:12:49;;;;;;;;;;;;;;;19.73;46.22;101418.47;2051789;28;1728;-60
2024/03/22 03:13:49;;;;;;;;;;;;;;;19.73;46.47;101404.09;2052498;28;2291;-60
2024/03/22 03:14:50;;;;;;;;;;;;;;;19.72;46.35;101414.09;2052122;28;2311;-60
2024/03/22 03:15:50;;;;;;;;;;;;;;;19.72;46.42;101414.09;2051501;28;2271;-60
2024/03/22 03:16:51;;;;;;;;;;;;;;;19.72;46.50;101408.34;2060375;28;2182;-60
2024/03/22 03:17:51;;;;;;;;;;;;;;;19.71;46.48;101406.84;2060117;28;1935;-60
2024/03/22 03:18:52;;;;;;;;;;;;;;;19.72;46.35;101408.34;2051995;28;2153;-60
2024/03/22 03:19:52;;;;;;;;;;;;;;;19.72;46.39;101405.47;2051989;28;2274;-60
2024/03/22 03:20:53;;;;;;;;;;;;;;;19.70;46.23;101399.59;2050665;28;2478;-60
2024/03/22 03:21:53;;;;;;;;;;;;;;;19.73;46.42;101409.84;2060901;28;2296;-60
2024/03/22 03:22:53;;;;;;;;;;;;;;;19.70;46.41;101393.84;2058871;28;2659;-60
2024/03/22 03:23:54;;;;;;;;;;;;;;;19.70;46.46;101393.84;2058877;28;2202;-60
2024/03/22 03:24:54;;;;;;;;;;;;;;;19.70;46.48;101388.09;2060522;28;1920;-60
2024/03/22 03:25:54;;;;;;;;;;;;;;;19.70;46.36;101382.38;2053947;28;1846;-60
2024/03/22 03:26:55;;;;;;;;;;;;;;;19.69;46.40;101375.13;2050640;28;2204;-60
2024/03/22 03:27:55;;;;;;;;;;;;;;;19.69;46.26;101372.25;2051555;28;2287;-60
2024/03/22 03:28:56;;;;;;;;;;;;;;;19.67;46.34;101373.59;2051984;28;2257;-60
2024/03/22 03:29:56;;;;;;;;;;;;;;;19.68;46.48;101362.88;2051594;28;2220;-60
2024/03/22 03:30:56;;;;;;;;;;;;;;;19.67;46.34;101356.34;2058549;28;5990;-60
2024/03/22 03:31:57;;;;;;;;;;;;;;;19.66;46.42;101357.75;2060934;28;1599;-59
2024/03/22 03:32:57;;;;;;;;;;;;;;;19.67;46.34;101355.63;2052945;28;1712;-60
2024/03/22 03:33:58;;;;;;;;;;;;;;;19.68;46.48;101351.38;2059307;28;2017;-60
2024/03/22 03:34:59;;;;;;;;;;;;;;;19.67;46.39;101355.63;2051796;28;1918;-60
2024/03/22 03:35:59;;;;;;;;;;;;;;;19.67;46.38;101356.34;2052963;28;1583;-60
2024/03/22 03:37:01;;;;;;;;;;;;;;;19.67;46.31;101349.88;2050714;28;2164;-60
2024/03/22 03:38:01;;;;;;;;;;;;;;;19.66;46.39;101360.63;2051224;28;2433;-60
2024/03/22 03:39:02;;;;;;;;;;;;;;;19.66;46.35;101360.63;2051592;28;2205;-60
2024/03/22 03:40:02;;;;;;;;;;;;;;;19.66;46.35;101354.88;2052577;28;1810;-60
2024/03/22 03:41:03;;;;;;;;;;;;;;;19.67;46.36;101347.72;2051250;28;2265;-60
2024/03/22 03:42:03;;;;;;;;;;;;;;;19.66;46.19;101348.38;2059664;28;2326;-60
2024/03/22 03:43:03;;;;;;;;;;;;;;;19.66;46.44;101354.88;2052751;28;1946;-60
2024/03/22 03:44:04;;;;;;;;;;;;;;;19.65;46.36;101347.66;2051799;28;1663;-60
2024/03/22 03:45:04;;;;;;;;;;;;;;;19.65;46.38;101352.63;2059570;28;2134;-60
2024/03/22 03:46:05;;;;;;;;;;;;;;;19.66;46.42;101345.50;2051853;28;2232;-60
2024/03/22 03:47:05;;;;;;;;;;;;;;;19.66;46.32;101343.38;2051455;28;2017;-60
2024/03/22 03:48:06;;;;;;;;;;;;;;;19.66;46.40;101343.38;2053191;28;1581;-60
2024/03/22 03:49:06;;;;;;;;;;;;;;;19.66;46.44;101339.75;2052733;28;1876;-60
2024/03/22 03:50:06;;;;;;;;;;;;;;;19.65;46.52;101330.41;2051446;28;2225;-60
2024/03/22 03:51:07;;;;;;;;;;;;;;;19.66;46.40;101334.75;2058131;28;2174;-60
2024/03/22 03:52:07;;;;;;;;;;;;;;;19.65;46.38;101330.41;2058561;28;2335;-60
2024/03/22 03:53:08;;;;;;;;;;;;;;;19.66;46.42;101329.00;2052956;28;1652;-60
2024/03/22 03:54:08;;;;;;;;;;;;;;;19.67;46.33;101326.88;2052469;28;1868;-60
2024/03/22 03:55:08;;;;;;;;;;;;;;;19.67;46.43;101327.63;2050452;28;2328;-60
2024/03/22 03:56:09;;;;;;;;;;;;;;;19.67;46.48;101321.88;2053264;28;2179;-60
2024/03/22 03:57:09;;;;;;;;;;;;;;;19.68;46.42;101328.41;2060145;28;2584;-60
2024/03/22 03:58:10;;;;;;;;;;;;;;;19.70;46.47;101317.03;2059923;28;2605;-60
2024/03/22 03:59:10;;;;;;;;;;;;;;;19.70;46.25;101324.91;2057776;28;2212;-60
2024/03/22 04:00:11;;;;;;;;;;;;;;;19.70;46.22;101314.19;2057352;28;6493;-60
2024/03/22 04:01:11;;;;;;;;;;;;;;;19.72;46.35;101316.41;2059427;28;2353;-60
2024/03/22 04:02:12;;;;;;;;;;;;;;;19.73;46.28;101300.66;2052491;28;1596;-60
2024/03/22 04:03:12;;;;;;;;;;;;;;;19.74;46.25;101305.03;2060475;28;1665;-60
2024/03/22 04:04:12;;;;;;;;;;;;;;;19.75;46.10;101303.66;2058738;28;2231;-60
2024/03/22 04:05:13;;;;;;;;;;;;;;;19.75;46.15;101303.66;2053151;28;2084;-60
2024/03/22 04:06:13;;;;;;;;;;;;;;;19.77;45.98;101306.63;2053273;28;1739;-60
2024/03/22 04:07:13;;;;;;;;;;;;;;;19.76;46.20;101303.00;2052023;28;2216;-60
2024/03/22 04:08:14;;;;;;;;;;;;;;;19.77;46.23;101306.63;2050434;28;2182;-60
2024/03/22 04:09:14;;;;;;;;;;;;;;;19.77;46.31;101295.88;2052980;28;1645;-60
2024/03/22 04:10:15;;;;;;;;;;;;;;;19.77;46.24;101295.13;2059956;28;2300;-60
2024/03/22 04:11:15;;;;;;;;;;;;;;;19.75;46.23;101297.91;2052899;28;1636;-60
2024/03/22 04:12:16;;;;;;;;;;;;;;;19.77;46.22;101303.75;2052222;28;1997;-60
2024/03/22 04:13:16;;;;;;;;;;;;;;;19.77;46.32;101295.13;2051666;28;2345;-60
2024/03/22 04:14:16;;;;;;;;;;;;;;;19.76;46.27;101305.13;2052250;28;2707;-60
2024/03/22 04:15:17;;;;;;;;;;;;;;;19.76;46.30;101308.00;2052417;28;2331;-60
2024/03/22 04:16:17;;;;;;;;;;;;;;;19.77;46.15;101309.50;2059227;28;2165;-60
2024/03/22 04:17:18;;;;;;;;;;;;;;;19.77;46.31;101303.75;2052421;28;2200;-60
2024/03/22 04:18:18;;;;;;;;;;;;;;;19.77;46.42;101300.88;2052668;28;2170;-60
2024/03/22 04:19:19;;;;;;;;;;;;;;;19.77;46.49;101300.88;2059896;28;2261;-60
2024/03/22 04:20:19;;;;;;;;;;;;;;;19.77;46.39;101289.38;2052449;28;2430;-60
2024/03/22 04:21:19;;;;;;;;;;;;;;;19.77;46.45;101289.38;2052758;28;1731;-60
2024/03/22 04:22:20;;;;;;;;;;;;;;;19.78;46.26;101285.13;2051587;28;2274;-60
2024/03/22 04:23:21;;;;;;;;;;;;;;;19.79;46.24;101292.38;2050620;28;1688;-60
2024/03/22 04:24:21;;;;;;;;;;;;;;;19.80;46.18;101293.88;2056344;28;2247;-59
2024/03/22 04:25:21;;;;;;;;;;;;;;;19.80;46.23;101288.13;2058555;28;2065;-60
2024/03/22 04:26:22;;;;;;;;;;;;;;;19.82;46.19;101285.38;2052138;28;2226;-60
2024/03/22 04:27:23;;;;;;;;;;;;;;;19.81;46.36;101281.75;2052437;28;2357;-60
2024/03/22 04:28:24;;;;;;;;;;;;;;;19.82;46.31;101285.38;2050719;28;2597;-60
2024/03/22 04:29:24;;;;;;;;;;;;;;;19.82;46.33;101279.63;2053071;28;2125;-60
2024/03/22 04:30:25;;;;;;;;;;;;;;;19.83;46.32;101281.09;2059158;28;6218;-60
2024/03/22 04:31:25;;;;;;;;;;;;;;;19.83;46.57;101281.09;2060219;28;1617;-60
2024/03/22 04:32:25;;;;;;;;;;;;;;;19.84;46.42;101276.84;2051264;28;2253;-60
2024/03/22 04:33:26;;;;;;;;;;;;;;;19.84;46.58;101279.72;2051502;28;2247;-60
2024/03/22 04:34:27;;;;;;;;;;;;;;;19.84;46.60;101276.84;2053098;28;2277;-60
2024/03/22 04:35:27;;;;;;;;;;;;;;;19.85;46.79;101278.34;2051700;28;2374;-60
2024/03/22 04:36:27;;;;;;;;;;;;;;;19.85;46.58;101275.47;2051331;28;2327;-60
2024/03/22 04:37:28;;;;;;;;;;;;;;;19.85;46.55;101272.59;2051580;28;2280;-60
2024/03/22 04:38:29;;;;;;;;;;;;;;;19.85;46.53;101278.34;2051995;28;2373;-60
2024/03/22 04:39:29;;;;;;;;;;;;;;;19.85;46.84;101278.34;2052201;28;1741;-60
2024/03/22 04:40:30;;;;;;;;;;;;;;;19.85;46.67;101278.34;2060587;28;2316;-60
2024/03/22 04:41:30;;;;;;;;;;;;;;;19.85;46.74;101272.59;2052346;28;1885;-60
2024/03/22 04:42:31;;;;;;;;;;;;;;;19.84;46.78;101271.09;2060058;28;2368;-60
2024/03/22 04:43:31;;;;;;;;;;;;;;;19.84;46.58;101271.09;2060816;28;2293;-60
2024/03/22 04:44:31;;;;;;;;;;;;;;;19.84;46.66;101268.25;2061458;28;2194;-60
2024/03/22 04:45:32;;;;;;;;;;;;;;;19.84;46.63;101276.84;2059102;28;2223;-60
2024/03/22 04:46:32;;;;;;;;;;;;;;;19.84;46.75;101271.09;2060994;28;2772;-60
2024/03/22 04:47:32;;;;;;;;;;;;;;;19.84;46.65;101265.38;2060125;28;2144;-60
2024/03/22 04:48:33;;;;;;;;;;;;;;;19.84;46.50;101271.09;2061777;28;1843;-60
2024/03/22 04:49:33;;;;;;;;;;;;;;;19.84;46.56;101262.50;2054589;28;2266;-60
2024/03/22 04:50:34;;;;;;;;;;;;;;;19.84;46.50;101265.38;2052598;28;2274;-60
2024/03/22 04:51:35;;;;;;;;;;;;;;;19.84;46.54;101253.88;2054369;28;2302;-60
2024/03/22 04:52:35;;;;;;;;;;;;;;;19.84;46.69;101265.38;2053785;28;1563;-60
2024/03/22 04:53:35;;;;;;;;;;;;;;;19.84;46.59;101265.38;2051916;28;2153;-60
2024/03/22 04:54:36;;;;;;;;;;;;;;;19.82;46.73;101263.13;2053153;28;1642;-60
2024/03/22 04:55:37;;;;;;;;;;;;;;;19.83;46.63;101258.84;2054091;28;2518;-60
2024/03/22 04:56:39;;;;;;;;;;;;;;;19.83;46.63;101258.84;2060575;28;2240;-60
2024/03/22 04:57:39;;;;;;;;;;;;;;;19.84;46.59;101260.34;2060784;28;2646;-60
2024/03/22 04:58:40;;;;;;;;;;;;;;;19.85;46.43;101261.09;2058629;28;2297;-60
2024/03/22 04:59:40;;;;;;;;;;;;;;;19.85;46.52;101255.34;2059964;28;2480;-60
2024/03/22 05:00:41;;;;;;;;;;;;;;;19.85;46.49;101252.47;2052619;28;6206;-60
2024/03/22 05:01:44;;;;;;;;;;;;;;;19.85;46.56;101261.84;2059028;28;2226;-60
2024/03/22 05:02:44;;;;;;;;;;;;;;;19.87;46.83;101264.09;2060642;28;2043;-60
2024/03/22 05:03:45;;;;;;;;;;;;;;;19.87;46.71;101261.94;2061645;28;1670;-60
2024/03/22 05:04:46;;;;;;;;;;;;;;;19.87;46.70;101261.22;2061490;28;1525;-60
2024/03/22 05:05:46;;;;;;;;;;;;;;;19.87;46.65;101250.44;2053178;28;1869;-60
2024/03/22 05:06:46;;;;;;;;;;;;;;;19.87;46.71;101256.19;2050615;28;2688;-60
2024/03/22 05:07:47;;;;;;;;;;;;;;;19.88;46.54;101256.94;2061299;28;2252;-60
2024/03/22 05:08:47;;;;;;;;;;;;;;;19.89;46.46;101261.31;2060488;28;2219;-60
2024/03/22 05:09:48;;;;;;;;;;;;;;;19.89;46.63;101261.31;2053506;28;2195;-60
2024/03/22 05:10:48;;;;;;;;;;;;;;;19.90;46.77;101259.94;2053581;28;2377;-60
2024/03/22 05:11:50;;;;;;;;;;;;;;;19.89;46.76;101255.56;2052987;28;2635;-60
2024/03/22 05:12:51;;;;;;;;;;;;;;;19.90;46.84;101256.31;2054868;28;2271;-60
2024/03/22 05:13:51;;;;;;;;;;;;;;;19.90;46.63;101259.94;2054305;28;2260;-60
2024/03/22 05:14:51;;;;;;;;;;;;;;;19.89;46.78;101252.69;2053603;28;2183;-60
2024/03/22 05:15:52;;;;;;;;;;;;;;;19.89;46.78;101244.09;2053295;28;2238;-60